Stamps, Arkansas
Current Conditions -  °F | °C
As of 12:53 AM on Saturday 01 Nov 2014 (Local Time) from KTXK Reporting Station
Clear Clear  
Wind Chill: 41°   Ceiling: Unl
Heat Index: 45°   Visibility: 10mi
Dew Point: 28°   Wind: 8mph
Humidity: 52%   Direction: 50°NE
Pressure: 30.36"   Gusts: NA
Location:  33.37°N, 93.5°W
Report Text: KTXK 010553Z AUTO 05007KT 10SM CLR 07/M02 A3036 RMK AO2 SLP280 T00721022 10139 20072 402000072 51007
Loading
Personal Weather Stations






























Interactive Weather Map
Tropical Storm Tracking
New forecast layout! Learn more

10-Day Weather Forecast

Advertisements
Track Severe Weather on mobile